Time;durP1;ratioP1;P1;durP2;ratioP2;P2;SDS_P1;SDS_P2;PMS_P1;PMS_P2;Temp;Humidity;BMP_temperature;BMP_pressure;BME280_temperature;BME280_humidity;BME280_pressure;Samples;Min_cycle;Max_cycle;Signal;HPM_P1;HPM_P2
2021/12/19 00:00:45;;;;;;;10.35;4.18;;;6.50;99.90;;;;;;5091457;28;20049;-83
2021/12/19 00:08:50;;;;;;;10.27;4.93;;;6.50;99.90;;;;;;5091146;28;20078;-84
2021/12/19 00:11:18;;;;;;;17.23;6.22;;;6.50;99.90;;;;;;5091022;28;20039;-83
2021/12/19 00:13:44;;;;;;;12.98;4.95;;;6.50;99.90;;;;;;5090924;28;20032;-84
2021/12/19 00:16:10;;;;;;;12.30;4.70;;;6.50;99.90;;;;;;5090830;28;20032;-84
2021/12/19 00:18:36;;;;;;;13.23;5.00;;;6.50;99.90;;;;;;5090736;28;20058;-84
2021/12/19 00:21:03;;;;;;;13.63;5.53;;;6.50;99.90;;;;;;5090672;28;20023;-84
2021/12/19 00:23:29;;;;;;;13.85;5.68;;;6.40;99.90;;;;;;5090633;28;20028;-83
2021/12/19 00:25:55;;;;;;;13.13;5.00;;;6.50;99.90;;;;;;5090551;28;20020;-83
2021/12/19 00:28:22;;;;;;;15.35;5.53;;;6.40;99.90;;;;;;5090380;28;20092;-84
2021/12/19 00:30:48;;;;;;;12.30;5.25;;;6.40;99.90;;;;;;5084024;28;20044;-83
2021/12/19 00:33:14;;;;;;;13.75;4.82;;;6.40;99.90;;;;;;5090235;28;20047;-83
2021/12/19 00:35:40;;;;;;;12.45;4.63;;;6.30;99.90;;;;;;5089899;28;20102;-82
2021/12/19 00:38:06;;;;;;;12.27;4.25;;;6.30;99.90;;;;;;5090130;28;20044;-83
2021/12/19 00:40:36;;;;;;;9.98;4.22;;;6.30;99.90;;;;;;5107196;28;20028;-83
2021/12/19 00:43:10;;;;;;;13.02;5.07;;;6.30;99.90;;;;;;5090265;28;20039;-83
2021/12/19 00:45:39;;;;;;;13.88;6.18;;;6.30;99.90;;;;;;5090222;28;20051;-84
2021/12/19 00:48:07;;;;;;;16.00;5.95;;;6.20;99.90;;;;;;5090473;28;20063;-82
2021/12/19 00:50:35;;;;;;;13.23;6.18;;;6.20;99.90;;;;;;5089897;28;20036;-84
2021/12/19 00:53:01;;;;;;;14.25;5.07;;;6.20;99.90;;;;;;5089911;28;20053;-85
2021/12/19 00:55:28;;;;;;;11.20;4.68;;;6.10;99.90;;;;;;5089995;28;20376;-85
2021/12/19 00:57:55;;;;;;;11.52;4.15;;;6.00;99.90;;;;;;5089908;28;20036;-84
2021/12/19 01:00:24;;;;;;;10.82;3.50;;;6.00;99.90;;;;;;5089810;28;20028;-83
2021/12/19 01:02:52;;;;;;;8.10;3.23;;;5.90;99.90;;;;;;5089719;28;20036;-83
2021/12/19 01:05:18;;;;;;;8.18;2.97;;;5.90;99.90;;;;;;5089629;28;20028;-82
2021/12/19 01:07:44;;;;;;;9.20;3.17;;;5.90;99.90;;;;;;5106099;28;20084;-83
2021/12/19 01:10:10;;;;;;;10.32;3.30;;;5.90;99.90;;;;;;5089960;28;20059;-83
2021/12/19 01:12:38;;;;;;;9.65;3.63;;;5.90;99.90;;;;;;5106749;28;20032;-83
2021/12/19 01:15:10;;;;;;;11.35;4.68;;;5.90;99.90;;;;;;5090237;28;20032;-83
2021/12/19 01:17:39;;;;;;;13.13;5.13;;;5.90;99.90;;;;;;5090063;28;20047;-84
2021/12/19 01:20:14;;;;;;;13.35;5.07;;;5.90;99.90;;;;;;5089598;28;20024;-83
2021/12/19 01:22:40;;;;;;;11.13;4.10;;;5.80;99.90;;;;;;5089528;28;20126;-82
2021/12/19 01:25:05;;;;;;;11.05;5.07;;;5.80;99.90;;;;;;5089408;28;20032;-83
2021/12/19 01:27:31;;;;;;;9.60;3.92;;;5.80;99.90;;;;;;5089543;28;20563;-83
2021/12/19 01:29:57;;;;;;;12.93;4.82;;;5.80;99.90;;;;;;5089381;28;20081;-83
2021/12/19 01:32:22;;;;;;;12.00;4.22;;;5.80;99.90;;;;;;5089131;28;20479;-86
2021/12/19 01:34:48;;;;;;;12.68;5.30;;;5.80;99.90;;;;;;5089407;28;20032;-83
2021/12/19 01:37:14;;;;;;;9.60;4.03;;;5.80;99.90;;;;;;5088947;28;20036;-83
2021/12/19 01:39:39;;;;;;;11.25;4.50;;;5.70;99.90;;;;;;5092651;28;20039;-83
2021/12/19 01:42:10;;;;;;;11.25;3.88;;;5.80;99.90;;;;;;5092155;28;20030;-83
2021/12/19 01:44:36;;;;;;;10.95;4.28;;;5.80;99.90;;;;;;5109362;28;20027;-83
2021/12/19 01:47:02;;;;;;;12.55;4.90;;;5.80;99.90;;;;;;5092276;28;20051;-83
2021/12/19 01:49:28;;;;;;;14.85;5.32;;;5.80;99.90;;;;;;5092377;28;20032;-83
2021/12/19 01:51:53;;;;;;;13.65;4.85;;;5.80;99.90;;;;;;5092347;28;20038;-83
2021/12/19 01:54:19;;;;;;;11.48;4.38;;;5.80;99.90;;;;;;5092063;28;20027;-83
2021/12/19 01:56:44;;;;;;;13.07;4.82;;;5.80;99.90;;;;;;5092066;28;20057;-83
2021/12/19 01:59:10;;;;;;;10.23;4.53;;;5.80;99.90;;;;;;5092208;28;20061;-83
2021/12/19 02:01:52;;;;;;;12.57;4.50;;;5.80;99.90;;;;;;5108969;28;20031;-83
2021/12/19 02:04:19;;;;;;;14.18;4.88;;;5.80;99.90;;;;;;5109057;28;20067;-83
2021/12/19 02:06:45;;;;;;;14.63;4.80;;;5.80;99.90;;;;;;5091944;28;20028;-83
2021/12/19 02:09:12;;;;;;;14.73;4.70;;;5.90;99.90;;;;;;5091861;28;20039;-84
2021/12/19 02:11:41;;;;;;;12.43;4.38;;;5.80;99.90;;;;;;5091870;28;20472;-83
2021/12/19 02:14:07;;;;;;;13.82;4.40;;;5.80;99.90;;;;;;5091887;28;20039;-83
2021/12/19 02:16:35;;;;;;;10.90;3.58;;;5.80;99.90;;;;;;5092096;28;20038;-83
2021/12/19 02:19:02;;;;;;;12.43;4.40;;;5.90;99.90;;;;;;5108558;28;20065;-83
2021/12/19 02:21:28;;;;;;;11.63;4.07;;;5.90;99.90;;;;;;5108496;28;20069;-83
2021/12/19 02:23:59;;;;;;;11.43;4.30;;;5.90;99.90;;;;;;5091626;28;20024;-83
2021/12/19 02:26:25;;;;;;;15.63;3.70;;;5.90;99.90;;;;;;5091677;28;20040;-84
2021/12/19 02:28:50;;;;;;;11.25;4.40;;;5.90;99.90;;;;;;5108608;28;20133;-84
2021/12/19 02:31:16;;;;;;;9.13;3.25;;;5.90;99.90;;;;;;5108474;28;20027;-85
2021/12/19 02:33:53;;;;;;;8.85;3.60;;;5.90;99.90;;;;;;5091695;28;20034;-84
2021/12/19 02:36:36;;;;;;;11.38;3.58;;;5.90;99.90;;;;;;5091625;28;20065;-83
2021/12/19 02:49:47;;;;;;;9.68;3.15;;;5.90;99.90;;;;;;5088071;28;20427;-85
2021/12/19 02:52:15;;;;;;;11.35;3.80;;;6.00;99.90;;;;;;5071435;28;20024;-86
2021/12/19 02:54:41;;;;;;;5.50;1.95;;;5.90;99.90;;;;;;5088125;28;20047;-85
2021/12/19 02:57:07;;;;;;;4.57;1.55;;;5.90;99.90;;;;;;5087955;28;20034;-85
2021/12/19 02:59:33;;;;;;;4.38;1.20;;;5.90;99.90;;;;;;5071175;28;20096;-84
2021/12/19 03:01:59;;;;;;;2.95;0.93;;;5.90;99.90;;;;;;5088078;28;20032;-85
2021/12/19 03:04:24;;;;;;;2.70;0.60;;;5.90;99.90;;;;;;5071118;28;20036;-85
2021/12/19 03:06:50;;;;;;;4.15;0.77;;;5.90;99.90;;;;;;5071207;28;20028;-83
2021/12/19 03:09:34;;;;;;;4.07;0.70;;;5.90;99.90;;;;;;5071244;28;20031;-84
2021/12/19 03:12:14;;;;;;;3.13;0.70;;;5.90;99.90;;;;;;5071051;28;20032;-85
2021/12/19 03:20:10;;;;;;;2.58;0.60;;;5.90;99.90;;;;;;5087800;28;20046;-85
2021/12/19 03:22:36;;;;;;;2.20;0.50;;;6.00;99.90;;;;;;5070959;28;20458;-84
2021/12/19 03:25:02;;;;;;;2.60;0.40;;;6.00;99.90;;;;;;5070758;28;20032;-84
2021/12/19 03:27:28;;;;;;;3.88;0.57;;;6.00;99.90;;;;;;5106205;28;20035;-85
2021/12/19 03:29:53;;;;;;;2.58;0.77;;;6.00;99.90;;;;;;5089866;28;20032;-85
2021/12/19 03:32:19;;;;;;;4.70;0.95;;;6.00;99.90;;;;;;5075187;28;20052;-85
2021/12/19 03:34:45;;;;;;;4.90;1.27;;;6.00;99.90;;;;;;5109996;28;20032;-84
2021/12/19 03:37:10;;;;;;;4.13;0.80;;;6.00;99.90;;;;;;5075028;28;20036;-85
2021/12/19 03:39:54;;;;;;;7.32;1.83;;;6.00;99.90;;;;;;5092151;28;20057;-85
2021/12/19 03:42:20;;;;;;;6.38;1.52;;;6.00;99.90;;;;;;5094962;28;20024;-85
2021/12/19 03:44:45;;;;;;;8.00;1.67;;;6.10;99.90;;;;;;5095017;28;20126;-86
2021/12/19 03:47:11;;;;;;;6.10;1.50;;;6.10;99.90;;;;;;5112049;28;20040;-86
2021/12/19 03:49:36;;;;;;;4.72;1.35;;;6.00;99.90;;;;;;5094910;28;20020;-86
2021/12/19 03:52:02;;;;;;;6.13;0.85;;;6.10;99.90;;;;;;5112194;28;20463;-85
2021/12/19 03:54:28;;;;;;;5.38;1.13;;;6.00;99.90;;;;;;5094652;28;20589;-85
2021/12/19 03:56:54;;;;;;;4.85;1.08;;;6.10;99.90;;;;;;5111920;28;20032;-86
2021/12/19 03:59:19;;;;;;;3.50;0.70;;;6.10;99.90;;;;;;5111677;28;20059;-85
2021/12/19 04:01:49;;;;;;;5.03;0.80;;;6.10;99.90;;;;;;5129884;28;20028;-86
2021/12/19 04:04:15;;;;;;;;;;;6.10;99.90;;;;;;5095068;28;20031;-86
2021/12/19 04:06:41;;;;;;;5.30;0.80;;;6.10;99.90;;;;;;5094595;28;19970;-85
2021/12/19 04:09:06;;;;;;;6.22;1.00;;;6.10;99.90;;;;;;5094633;28;20051;-85
2021/12/19 04:11:32;;;;;;;2.63;0.57;;;6.10;99.90;;;;;;5111607;28;20387;-85
2021/12/19 04:13:57;;;;;;;4.97;0.80;;;6.10;99.90;;;;;;5111465;28;20244;-85
2021/12/19 04:16:23;;;;;;;7.70;1.02;;;6.10;99.90;;;;;;5094609;28;20061;-85
2021/12/19 04:18:49;;;;;;;5.53;1.35;;;6.10;99.90;;;;;;5094385;28;20055;-85
2021/12/19 04:21:14;;;;;;;8.30;1.33;;;6.10;99.90;;;;;;5094373;28;20161;-86
2021/12/19 04:23:40;;;;;;;7.13;1.42;;;6.10;99.90;;;;;;5111520;28;20046;-86
2021/12/19 04:26:06;;;;;;;8.40;1.10;;;6.10;99.90;;;;;;5094381;28;20027;-86
2021/12/19 04:28:52;;;;;;;4.47;0.90;;;6.10;99.90;;;;;;5094069;28;20099;-85
2021/12/19 04:31:18;;;;;;;5.50;1.02;;;6.20;99.90;;;;;;4993267;28;20643;-85
2021/12/19 04:33:44;;;;;;;10.57;2.63;;;6.20;99.90;;;;;;5026212;28;20064;-85
2021/12/19 04:36:15;;;;;;;7.07;1.23;;;6.20;99.90;;;;;;5026250;28;20053;-86
2021/12/19 05:15:16;;;;;;;10.60;2.72;;;6.30;99.90;;;;;;5089862;28;20036;-85
2021/12/19 05:17:42;;;;;;;10.35;2.90;;;6.30;99.90;;;;;;5073348;28;20032;-85
2021/12/19 05:20:16;;;;;;;8.10;2.42;;;6.30;99.90;;;;;;5072842;28;20024;-85
2021/12/19 05:22:48;;;;;;;10.10;2.90;;;6.30;99.90;;;;;;5072861;28;20024;-85
2021/12/19 05:25:17;;;;;;;10.85;3.00;;;6.40;99.90;;;;;;5072911;28;20028;-84
2021/12/19 05:27:45;;;;;;;7.63;2.15;;;6.40;99.90;;;;;;5073015;28;20119;-87
2021/12/19 05:30:12;;;;;;;9.85;2.75;;;6.40;99.90;;;;;;5019980;28;20551;-87
2021/12/19 05:32:39;;;;;;;7.45;2.00;;;6.40;99.90;;;;;;5093919;28;20063;-87
2021/12/19 05:35:06;;;;;;;6.70;1.75;;;6.50;99.90;;;;;;5085679;28;20032;-87
2021/12/19 05:45:46;;;;;;;6.50;1.35;;;6.50;99.90;;;;;;5106305;28;20020;-87
2021/12/19 05:48:12;;;;;;;5.57;0.70;;;6.60;99.90;;;;;;5089675;28;20051;-87
2021/12/19 05:50:39;;;;;;;6.30;0.98;;;6.60;99.90;;;;;;5107163;28;20020;-87
2021/12/19 05:53:06;;;;;;;7.50;1.38;;;6.50;99.90;;;;;;5088999;28;20042;-87
2021/12/19 05:55:31;;;;;;;7.30;1.13;;;6.60;99.90;;;;;;5088973;28;20091;-87
2021/12/19 05:57:57;;;;;;;7.90;1.52;;;6.60;99.90;;;;;;5089199;28;20047;-86
2021/12/19 06:00:24;;;;;;;6.68;1.20;;;6.60;99.90;;;;;;5088537;28;20027;-87
2021/12/19 06:02:50;;;;;;;6.03;1.45;;;6.60;99.90;;;;;;5088898;28;20464;-87
2021/12/19 06:05:16;;;;;;;12.50;2.03;;;6.60;99.90;;;;;;5088980;28;20032;-87
2021/12/19 06:07:42;;;;;;;9.45;2.30;;;6.60;99.90;;;;;;5088857;28;20024;-87
2021/12/19 06:10:09;;;;;;;7.55;1.63;;;6.60;99.90;;;;;;5106751;28;20039;-87
2021/12/19 06:12:36;;;;;;;8.45;2.30;;;6.60;99.90;;;;;;5088854;28;20028;-87
2021/12/19 06:15:02;;;;;;;10.45;3.10;;;6.60;99.90;;;;;;5088739;28;20035;-87
2021/12/19 06:17:28;;;;;;;13.68;3.20;;;6.60;99.90;;;;;;5107414;28;20048;-87
2021/12/19 06:19:54;;;;;;;8.32;1.95;;;6.60;99.90;;;;;;5088864;28;20154;-87
2021/12/19 06:22:19;;;;;;;9.40;2.35;;;6.60;99.90;;;;;;5088371;28;20042;-87
2021/12/19 06:24:45;;;;;;;10.30;3.08;;;6.60;99.90;;;;;;5105378;28;20141;-87
2021/12/19 06:27:10;;;;;;;11.20;3.45;;;6.60;99.90;;;;;;5088399;28;20036;-87
2021/12/19 06:29:36;;;;;;;12.15;3.28;;;6.60;99.90;;;;;;5105709;28;20055;-86
2021/12/19 06:32:02;;;;;;;8.02;1.88;;;6.60;99.90;;;;;;5088144;28;20058;-87
2021/12/19 06:34:28;;;;;;;9.70;2.17;;;6.60;99.90;;;;;;5088148;28;20035;-87
2021/12/19 06:36:53;;;;;;;7.18;1.95;;;6.60;99.90;;;;;;5088328;28;20067;-87
2021/12/19 06:39:21;;;;;;;3.05;1.10;;;6.60;99.90;;;;;;5084568;28;20048;-87
2021/12/19 06:41:47;;;;;;;3.30;0.75;;;6.60;99.90;;;;;;5068075;28;20024;-88
2021/12/19 06:44:12;;;;;;;4.80;0.95;;;6.60;99.90;;;;;;5068400;28;20032;-87
2021/12/19 06:46:38;;;;;;;3.97;0.60;;;6.50;99.90;;;;;;5084815;28;20032;-86
2021/12/19 06:49:04;;;;;;;4.28;0.50;;;6.50;99.90;;;;;;5068085;28;20039;-87
2021/12/19 06:51:31;;;;;;;2.90;0.40;;;6.60;99.90;;;;;;5068123;28;20032;-87
2021/12/19 06:53:57;;;;;;;1.38;0.20;;;6.50;99.90;;;;;;5067677;28;20035;-88
2021/12/19 06:56:23;;;;;;;1.77;0.20;;;6.50;99.90;;;;;;5067848;28;20037;-87
2021/12/19 06:58:48;;;;;;;1.42;0.20;;;6.50;99.90;;;;;;5084668;28;20052;-87
2021/12/19 07:01:14;;;;;;;0.82;0.20;;;6.50;99.90;;;;;;5067664;28;20029;-86
2021/12/19 07:03:40;;;;;;;1.08;0.20;;;6.40;99.90;;;;;;5083871;28;20039;-86
2021/12/19 07:06:05;;;;;;;0.85;0.20;;;6.50;99.90;;;;;;5084580;28;20033;-87
2021/12/19 07:08:31;;;;;;;1.35;0.20;;;6.40;99.90;;;;;;5085918;28;20024;-88
2021/12/19 07:10:57;;;;;;;1.38;0.22;;;6.40;99.90;;;;;;5084614;28;20051;-87
2021/12/19 07:13:22;;;;;;;1.70;0.20;;;6.40;99.90;;;;;;5084590;28;20043;-87
2021/12/19 07:15:53;;;;;;;1.00;0.20;;;6.40;99.90;;;;;;5084502;28;20128;-87
2021/12/19 07:18:19;;;;;;;1.23;0.20;;;6.40;99.90;;;;;;5067944;28;20051;-87
2021/12/19 07:20:44;;;;;;;1.40;0.20;;;6.30;99.90;;;;;;5067851;28;20118;-87
2021/12/19 07:23:16;;;;;;;1.17;0.20;;;6.40;99.90;;;;;;5084230;28;20042;-87
2021/12/19 07:25:42;;;;;;;1.35;0.20;;;6.30;99.90;;;;;;5067693;28;20088;-86
2021/12/19 07:28:08;;;;;;;1.65;0.20;;;6.30;99.90;;;;;;5084546;28;20040;-86
2021/12/19 07:30:36;;;;;;;1.10;0.17;;;6.30;99.90;;;;;;5084245;28;20032;-87
2021/12/19 07:33:03;;;;;;;1.33;0.10;;;6.30;99.90;;;;;;5063988;28;20049;-88
2021/12/19 07:35:31;;;;;;;1.92;0.20;;;6.20;99.90;;;;;;5064309;28;20044;-88
2021/12/19 07:37:57;;;;;;;0.93;0.10;;;6.10;99.90;;;;;;5050211;28;20060;-86
2021/12/19 07:40:26;;;;;;;0.73;0.10;;;6.10;99.90;;;;;;5083990;28;20029;-87
2021/12/19 07:42:52;;;;;;;0.73;0.10;;;6.10;99.90;;;;;;5067166;28;20044;-87
2021/12/19 07:45:18;;;;;;;1.08;0.13;;;6.10;99.90;;;;;;5084221;28;20036;-87
2021/12/19 07:47:44;;;;;;;0.50;0.10;;;6.10;99.90;;;;;;5084095;28;20036;-88
2021/12/19 07:50:11;;;;;;;0.40;0.10;;;6.10;99.90;;;;;;5067651;28;20438;-87
2021/12/19 07:52:38;;;;;;;1.15;0.10;;;6.10;99.90;;;;;;5083594;28;20059;-87
2021/12/19 07:55:05;;;;;;;1.02;0.10;;;6.00;99.90;;;;;;5067359;28;20052;-88
2021/12/19 07:57:30;;;;;;;0.25;0.08;;;6.00;99.90;;;;;;5067144;28;20033;-88
2021/12/19 07:59:56;;;;;;;0.55;0.00;;;6.00;99.90;;;;;;5083668;28;20029;-87
2021/12/19 08:02:22;;;;;;;0.60;0.10;;;6.10;99.90;;;;;;5082936;28;20391;-87
2021/12/19 08:04:47;;;;;;;1.70;0.05;;;6.10;99.90;;;;;;5083391;28;20439;-88
2021/12/19 08:07:15;;;;;;;0.32;0.05;;;6.10;99.90;;;;;;5083384;28;20096;-87
2021/12/19 08:09:58;;;;;;;1.35;0.10;;;6.10;99.90;;;;;;5066376;28;20036;-86
2021/12/19 08:12:24;;;;;;;0.47;0.10;;;6.10;99.90;;;;;;5083312;28;20032;-88
2021/12/19 08:14:50;;;;;;;0.52;0.10;;;6.10;99.90;;;;;;5083644;28;20040;-88
2021/12/19 08:17:17;;;;;;;0.50;0.10;;;6.10;99.90;;;;;;5069871;28;20028;-88
2021/12/19 08:19:43;;;;;;;0.30;0.10;;;6.10;99.90;;;;;;5086853;28;20112;-88
2021/12/19 08:22:09;;;;;;;0.60;0.10;;;6.00;99.90;;;;;;5087828;28;20058;-88
2021/12/19 08:24:35;;;;;;;0.80;0.10;;;6.10;99.90;;;;;;5086408;28;20090;-88
2021/12/19 08:27:03;;;;;;;0.50;0.08;;;6.00;99.90;;;;;;5070058;28;20029;-88
2021/12/19 08:29:28;;;;;;;0.55;0.00;;;6.00;99.90;;;;;;5069913;28;20127;-88
2021/12/19 08:31:54;;;;;;;0.68;0.10;;;6.00;99.90;;;;;;5094363;28;20055;-89
2021/12/19 08:34:20;;;;;;;1.70;0.10;;;6.00;99.90;;;;;;5107048;28;20038;-87
2021/12/19 08:36:45;;;;;;;0.40;0.10;;;6.00;99.90;;;;;;5090127;28;20035;-87
2021/12/19 08:39:13;;;;;;;0.50;0.10;;;6.10;99.90;;;;;;5092676;28;20040;-87
2021/12/19 08:41:39;;;;;;;1.92;0.10;;;6.10;99.90;;;;;;5086636;28;20052;-88
2021/12/19 08:44:05;;;;;;;1.33;0.10;;;6.10;99.90;;;;;;5086623;28;20040;-88
2021/12/19 08:46:35;;;;;;;0.55;0.10;;;6.10;99.90;;;;;;5069473;28;20036;-87
2021/12/19 08:49:02;;;;;;;1.35;0.10;;;6.10;99.90;;;;;;5069521;28;20042;-88
2021/12/19 08:51:28;;;;;;;1.27;0.20;;;6.10;99.90;;;;;;5069553;28;20105;-87
2021/12/19 08:53:54;;;;;;;0.38;0.00;;;6.20;99.90;;;;;;5069241;28;20036;-87
2021/12/19 08:56:20;;;;;;;0.20;0.00;;;6.20;99.90;;;;;;5086538;28;20036;-88
2021/12/19 08:58:45;;;;;;;0.30;0.10;;;6.20;99.90;;;;;;5069359;28;20131;-88
2021/12/19 09:01:11;;;;;;;0.40;0.10;;;6.20;99.90;;;;;;5069400;28;20082;-88
2021/12/19 09:03:36;;;;;;;0.22;0.00;;;6.30;99.90;;;;;;5069322;28;20032;-88
2021/12/19 09:06:03;;;;;;;0.98;0.00;;;6.30;99.90;;;;;;5086050;28;20037;-88
2021/12/19 09:08:30;;;;;;;0.45;0.10;;;6.30;99.90;;;;;;5085662;28;20036;-88
2021/12/19 09:11:00;;;;;;;0.30;0.00;;;6.30;99.90;;;;;;5069422;28;20103;-87
2021/12/19 09:13:25;;;;;;;0.50;0.08;;;6.20;99.90;;;;;;5069189;28;20052;-88
2021/12/19 09:15:51;;;;;;;0.17;0.00;;;6.30;99.90;;;;;;5069308;28;20079;-88
2021/12/19 09:18:17;;;;;;;0.30;0.10;;;6.30;99.90;;;;;;5068818;28;20082;-88
2021/12/19 09:20:43;;;;;;;0.20;0.00;;;6.30;99.90;;;;;;5068930;28;20025;-87
2021/12/19 09:23:09;;;;;;;0.35;0.05;;;6.30;99.90;;;;;;5085384;28;20024;-88
2021/12/19 09:25:36;;;;;;;0.65;0.00;;;6.40;99.90;;;;;;5085825;28;20029;-89
2021/12/19 09:28:02;;;;;;;0.03;0.00;;;6.40;99.90;;;;;;5085119;28;20109;-87
2021/12/19 09:30:27;;;;;;;0.60;0.10;;;6.40;99.90;;;;;;5069118;23;20048;-88
2021/12/19 09:32:54;;;;;;;0.30;0.00;;;6.30;99.90;;;;;;5052278;28;20112;-88
2021/12/19 09:35:19;;;;;;;0.88;0.10;;;6.30;99.90;;;;;;5069136;28;20025;-88
2021/12/19 09:37:45;;;;;;;0.90;0.10;;;6.30;99.90;;;;;;5052191;28;20059;-87
2021/12/19 09:40:17;;;;;;;0.35;0.10;;;6.30;99.90;;;;;;5052609;28;20121;-86
2021/12/19 09:42:48;;;;;;;1.88;0.10;;;6.30;99.90;;;;;;5069054;28;20037;-88
2021/12/19 09:45:16;;;;;;;0.40;0.10;;;6.30;99.90;;;;;;5069277;28;20040;-86
2021/12/19 09:47:43;;;;;;;0.80;0.20;;;6.30;99.90;;;;;;5069037;28;20051;-86
2021/12/19 09:50:10;;;;;;;2.10;0.30;;;6.40;99.90;;;;;;5052296;28;20078;-87
2021/12/19 09:52:36;;;;;;;1.23;0.20;;;6.30;99.90;;;;;;5051805;28;20064;-89
2021/12/19 09:55:02;;;;;;;1.38;0.40;;;6.40;99.90;;;;;;5051977;28;20028;-86
2021/12/19 09:57:28;;;;;;;3.05;0.40;;;6.40;99.90;;;;;;5051777;28;20033;-86
2021/12/19 09:59:53;;;;;;;1.70;0.40;;;6.40;99.90;;;;;;5051788;28;20082;-87
2021/12/19 10:02:19;;;;;;;2.78;0.50;;;6.40;99.90;;;;;;5051994;28;20024;-86
2021/12/19 10:04:46;;;;;;;2.88;0.65;;;6.40;99.90;;;;;;5051688;28;20102;-87
2021/12/19 10:07:19;;;;;;;2.78;0.60;;;6.50;99.90;;;;;;5051416;28;20033;-87
2021/12/19 10:10:06;;;;;;;1.40;0.40;;;6.50;99.90;;;;;;5068353;28;20443;-86
2021/12/19 10:15:05;;;;;;;3.33;0.80;;;6.50;99.90;;;;;;5067907;28;20033;-87
2021/12/19 10:17:35;;;;;;;2.08;0.60;;;6.50;99.90;;;;;;5051519;28;20330;-86
2021/12/19 10:20:05;;;;;;;5.40;0.88;;;6.60;99.90;;;;;;5067457;28;20066;-87
2021/12/19 10:22:36;;;;;;;3.03;0.65;;;6.50;99.90;;;;;;5050969;28;20039;-86
2021/12/19 10:30:36;;;;;;;3.35;0.77;;;6.60;99.90;;;;;;5063897;28;20041;-87
2021/12/19 10:33:08;;;;;;;4.25;1.02;;;6.60;99.90;;;;;;5031134;28;20393;-87
2021/12/19 10:35:50;;;;;;;4.55;1.08;;;6.50;99.90;;;;;;5031203;28;20048;-87
2021/12/19 10:38:15;;;;;;;8.98;1.95;;;6.60;99.90;;;;;;5030713;28;20492;-86
2021/12/19 10:40:50;;;;;;;7.25;1.05;;;6.60;99.90;;;;;;5030709;28;20097;-87
2021/12/19 10:43:17;;;;;;;3.70;1.05;;;6.60;99.90;;;;;;5047732;28;20033;-86
2021/12/19 10:45:44;;;;;;;6.45;1.00;;;6.60;99.90;;;;;;5047790;28;20025;-86
2021/12/19 10:48:22;;;;;;;4.30;0.82;;;6.70;99.90;;;;;;5031202;28;20024;-86
2021/12/19 10:50:53;;;;;;;4.78;0.75;;;6.70;99.90;;;;;;5030891;28;20469;-86
2021/12/19 10:53:24;;;;;;;4.05;0.80;;;6.70;99.90;;;;;;5030657;28;20096;-85
2021/12/19 10:55:51;;;;;;;4.50;1.10;;;6.70;99.90;;;;;;5031275;28;20036;-86
2021/12/19 10:58:25;;;;;;;5.05;1.10;;;6.70;99.90;;;;;;5047651;28;20119;-86
2021/12/19 11:01:03;;;;;;;3.25;0.90;;;6.70;99.90;;;;;;5031194;28;20075;-85
2021/12/19 11:03:45;;;;;;;4.45;0.90;;;6.70;99.90;;;;;;5030615;28;20044;-86
2021/12/19 11:06:33;;;;;;;9.88;1.40;;;6.70;99.90;;;;;;5030655;28;20039;-85
2021/12/19 11:09:00;;;;;;;3.50;1.23;;;6.70;99.90;;;;;;5047164;28;20044;-85
2021/12/19 11:11:50;;;;;;;7.03;1.35;;;6.70;99.90;;;;;;5047495;28;20036;-86
2021/12/19 11:14:28;;;;;;;6.00;1.00;;;6.70;99.90;;;;;;5032279;28;20054;-85
2021/12/19 11:16:57;;;;;;;7.28;0.90;;;6.70;99.90;;;;;;5030675;28;20044;-85
2021/12/19 11:19:24;;;;;;;7.63;1.13;;;6.70;99.90;;;;;;5047087;28;20045;-85
2021/12/19 11:21:51;;;;;;;6.05;1.05;;;6.70;99.90;;;;;;5030283;28;20276;-86
2021/12/19 11:24:19;;;;;;;7.72;1.38;;;6.70;99.90;;;;;;5030845;28;20063;-85
2021/12/19 11:26:48;;;;;;;8.07;0.80;;;6.80;99.90;;;;;;5030967;28;20448;-85
2021/12/19 11:29:14;;;;;;;4.38;0.80;;;6.70;99.90;;;;;;5030498;28;20053;-88
2021/12/19 11:31:45;;;;;;;5.78;2.03;;;6.70;99.90;;;;;;5046829;28;20093;-85
2021/12/19 11:34:16;;;;;;;5.55;1.05;;;6.70;99.90;;;;;;5030707;28;20072;-86
2021/12/19 11:37:05;;;;;;;3.47;0.77;;;6.70;99.90;;;;;;5064547;28;20033;-87
2021/12/19 11:39:37;;;;;;;8.55;0.95;;;6.70;99.90;;;;;;5027022;28;20041;-87
2021/12/19 11:42:07;;;;;;;6.75;1.15;;;6.70;99.90;;;;;;5043583;28;20033;-86
2021/12/19 11:44:46;;;;;;;6.10;0.93;;;6.70;99.90;;;;;;5043684;28;20037;-87
2021/12/19 11:47:16;;;;;;;9.27;1.13;;;6.70;99.90;;;;;;5043714;28;20033;-86
2021/12/19 11:49:41;;;;;;;7.20;1.45;;;6.70;99.90;;;;;;5043990;28;20044;-85
2021/12/19 11:52:30;;;;;;;8.88;0.80;;;6.70;99.90;;;;;;5013693;28;20029;-86
2021/12/19 11:55:14;;;;;;;5.00;0.80;;;6.70;99.90;;;;;;5047168;28;20120;-86
2021/12/19 11:57:41;;;;;;;5.68;0.98;;;6.70;99.90;;;;;;5014469;28;20048;-87
2021/12/19 12:00:27;;;;;;;6.95;1.08;;;6.70;99.90;;;;;;5047090;28;20037;-87
2021/12/19 12:03:11;;;;;;;5.43;0.90;;;6.70;99.90;;;;;;5047134;28;20022;-87
2021/12/19 12:05:44;;;;;;;8.73;0.88;;;6.70;99.90;;;;;;5014004;28;20033;-86
2021/12/19 12:08:11;;;;;;;5.45;0.90;;;6.70;99.90;;;;;;5014231;28;20036;-86
2021/12/19 12:10:59;;;;;;;4.00;0.65;;;6.70;99.90;;;;;;5014217;28;20029;-86
2021/12/19 12:13:29;;;;;;;4.68;0.50;;;6.70;99.90;;;;;;5014754;28;20072;-87
2021/12/19 12:16:05;;;;;;;4.05;0.47;;;6.70;99.90;;;;;;5046959;28;20068;-87
2021/12/19 12:18:34;;;;;;;5.43;0.80;;;6.70;99.90;;;;;;5047316;28;20041;-87
2021/12/19 12:24:05;;;;;;;3.88;0.50;;;6.70;99.90;;;;;;5046343;28;20045;-87
2021/12/19 12:29:04;;;;;;;5.18;0.60;;;6.70;99.90;;;;;;5029966;28;20049;-86
2021/12/19 12:31:30;;;;;;;3.90;0.57;;;6.70;99.90;;;;;;5046471;28;20091;-86
2021/12/19 12:33:56;;;;;;;3.42;0.43;;;6.70;99.90;;;;;;5046584;28;20462;-86
2021/12/19 12:36:26;;;;;;;5.82;0.75;;;6.70;99.90;;;;;;5046055;28;20026;-86
2021/12/19 12:38:55;;;;;;;3.85;0.57;;;6.70;99.90;;;;;;5049726;28;20045;-86
2021/12/19 12:41:35;;;;;;;2.95;0.50;;;6.80;99.90;;;;;;5033250;28;20033;-87
2021/12/19 12:44:07;;;;;;;5.50;0.50;;;6.70;99.90;;;;;;5033198;28;20100;-86
2021/12/19 12:46:33;;;;;;;2.50;0.43;;;6.80;99.90;;;;;;5033000;28;20389;-86
2021/12/19 12:49:00;;;;;;;3.15;0.57;;;6.70;99.90;;;;;;5049698;28;20041;-86
2021/12/19 12:51:31;;;;;;;3.08;0.40;;;6.70;99.90;;;;;;5032558;28;20036;-87
2021/12/19 12:54:02;;;;;;;2.50;0.50;;;6.80;99.90;;;;;;5033220;28;20071;-87
2021/12/19 12:56:43;;;;;;;6.90;1.15;;;6.80;99.90;;;;;;5049587;28;20068;-86
2021/12/19 12:59:10;;;;;;;2.92;0.40;;;6.70;99.90;;;;;;5032993;28;20087;-88
2021/12/19 13:01:45;;;;;;;5.05;0.50;;;6.80;99.90;;;;;;5031829;28;20489;-85
2021/12/19 13:04:19;;;;;;;4.50;0.50;;;6.80;99.90;;;;;;5033094;28;20056;-86
2021/12/19 13:06:50;;;;;;;3.25;0.60;;;6.70;99.90;;;;;;5033105;28;20044;-86
2021/12/19 13:09:22;;;;;;;4.32;0.70;;;6.80;99.90;;;;;;5049244;28;20025;-86
2021/12/19 13:12:08;;;;;;;4.90;0.70;;;6.80;99.90;;;;;;5032405;28;20033;-87
2021/12/19 13:14:36;;;;;;;3.33;0.40;;;6.80;99.90;;;;;;5032769;28;20050;-86
2021/12/19 13:17:11;;;;;;;4.05;0.40;;;6.70;99.90;;;;;;5032123;28;20104;-86
2021/12/19 13:19:52;;;;;;;6.10;0.77;;;6.70;99.90;;;;;;5032496;28;20068;-86
2021/12/19 13:22:25;;;;;;;5.70;0.90;;;6.70;99.90;;;;;;5032271;28;20025;-86
2021/12/19 13:24:53;;;;;;;8.30;1.42;;;6.80;99.90;;;;;;5032700;28;20029;-86
2021/12/19 13:27:31;;;;;;;6.90;1.67;;;6.80;99.90;;;;;;5032277;28;20029;-86
2021/12/19 13:30:18;;;;;;;8.18;1.92;;;6.80;99.90;;;;;;5030991;23;20105;-86
2021/12/19 13:32:51;;;;;;;7.13;1.50;;;6.80;99.90;;;;;;4993199;28;20098;-87
2021/12/19 13:35:22;;;;;;;10.15;1.75;;;6.80;99.90;;;;;;5009443;28;20084;-85
2021/12/19 13:38:06;;;;;;;5.05;1.15;;;6.80;99.90;;;;;;5009483;28;20045;-88
2021/12/19 13:40:41;;;;;;;8.93;1.50;;;6.80;99.90;;;;;;5009456;28;20034;-86
2021/12/19 13:43:14;;;;;;;8.90;1.33;;;6.80;99.90;;;;;;5009276;28;20042;-86
2021/12/19 13:46:08;;;;;;;5.70;1.30;;;6.80;99.90;;;;;;5009371;28;20034;-85
2021/12/19 13:48:47;;;;;;;7.85;1.50;;;6.70;99.90;;;;;;5009312;28;20037;-87
2021/12/19 13:51:24;;;;;;;9.40;1.17;;;6.80;99.90;;;;;;5009314;28;20465;-87
2021/12/19 13:53:53;;;;;;;6.55;1.20;;;6.80;99.90;;;;;;5009053;28;20277;-85
2021/12/19 13:56:20;;;;;;;5.05;0.90;;;6.70;99.90;;;;;;5025628;28;20040;-86
2021/12/19 13:58:56;;;;;;;6.93;0.90;;;6.90;99.90;;;;;;5008952;28;20080;-87
2021/12/19 14:01:23;;;;;;;11.30;1.35;;;6.80;99.90;;;;;;5009014;28;20026;-86
2021/12/19 14:03:54;;;;;;;6.47;0.80;;;6.80;99.90;;;;;;5008121;28;20068;-86
2021/12/19 14:06:31;;;;;;;8.50;1.23;;;6.80;99.90;;;;;;5025355;28;20397;-86
2021/12/19 14:08:58;;;;;;;5.47;1.02;;;6.80;99.90;;;;;;5008667;28;20045;-86
2021/12/19 14:11:26;;;;;;;6.07;0.98;;;6.80;99.90;;;;;;5025218;28;20365;-85
2021/12/19 14:14:08;;;;;;;5.47;0.70;;;6.80;99.90;;;;;;5008203;28;20034;-85
2021/12/19 14:16:43;;;;;;;4.43;0.77;;;6.80;99.90;;;;;;5025040;28;20085;-85
2021/12/19 14:19:26;;;;;;;5.57;0.70;;;6.80;99.90;;;;;;5008035;28;20045;-85
2021/12/19 14:22:09;;;;;;;4.15;0.82;;;6.80;99.90;;;;;;5008199;28;20041;-85
2021/12/19 14:24:52;;;;;;;3.88;0.77;;;6.80;99.90;;;;;;5008446;28;20112;-86